Time;durP1;ratioP1;P1;durP2;ratioP2;P2;SDS_P1;SDS_P2;PMS_P1;PMS_P2;Temp;Humidity;BMP_temperature;BMP_pressure;BME280_temperature;BME280_humidity;BME280_pressure;Samples;Min_cycle;Max_cycle;Signal;HPM_P1;HPM_P2
2023/05/25 00:02:05;;;;;;;13.35;3.70;;;13.70;99.90;;;;;;5093760;28;20243;-55
2023/05/25 00:04:33;;;;;;;17.10;4.07;;;13.60;99.90;;;;;;5093786;28;20186;-55
2023/05/25 00:06:59;;;;;;;15.18;4.03;;;13.60;99.90;;;;;;5093635;28;20172;-55
2023/05/25 00:09:25;;;;;;;15.00;3.97;;;13.60;99.90;;;;;;5093615;28;20174;-55
2023/05/25 00:11:51;;;;;;;11.35;4.22;;;13.60;99.90;;;;;;5093318;28;20184;-55
2023/05/25 00:14:17;;;;;;;12.35;3.58;;;13.20;99.90;;;;;;5093709;28;20263;-55
2023/05/25 00:16:44;;;;;;;13.07;3.90;;;13.40;99.90;;;;;;5093389;28;20200;-56
2023/05/25 00:19:10;;;;;;;16.63;3.72;;;13.40;99.90;;;;;;5093086;28;20167;-56
2023/05/25 00:21:37;;;;;;;12.38;3.78;;;13.40;99.90;;;;;;5093122;28;20659;-55
2023/05/25 00:24:04;;;;;;;15.02;4.32;;;13.40;99.90;;;;;;5057485;28;20662;-56
2023/05/25 00:26:29;;;;;;;14.30;3.60;;;13.30;99.90;;;;;;5093119;28;20260;-56
2023/05/25 00:28:55;;;;;;;17.50;4.55;;;13.30;99.90;;;;;;5093380;28;20217;-56
2023/05/25 00:31:21;;;;;;;14.02;3.97;;;13.30;99.90;;;;;;5092799;28;20175;-56
2023/05/25 00:33:46;;;;;;;15.13;4.22;;;13.30;99.90;;;;;;5093198;28;20172;-56
2023/05/25 00:36:12;;;;;;;14.32;3.75;;;13.20;99.90;;;;;;5092834;28;20210;-56
2023/05/25 00:38:38;;;;;;;13.63;4.05;;;13.30;99.90;;;;;;5093138;28;20517;-56
2023/05/25 00:41:04;;;;;;;17.70;4.18;;;13.10;99.90;;;;;;5092605;28;20654;-56
2023/05/25 00:43:30;;;;;;;11.48;3.92;;;13.10;99.90;;;;;;5074688;28;20310;-56
2023/05/25 00:45:57;;;;;;;15.88;4.07;;;13.10;99.90;;;;;;5092925;28;20195;-56
2023/05/25 00:48:25;;;;;;;12.48;4.00;;;13.20;99.90;;;;;;5092973;28;20191;-56
2023/05/25 00:50:56;;;;;;;13.82;4.00;;;13.20;99.90;;;;;;5092548;28;20240;-56
2023/05/25 00:53:23;;;;;;;12.05;3.30;;;13.20;99.90;;;;;;5072437;28;20184;-55
2023/05/25 00:55:57;;;;;;;15.20;4.20;;;13.10;99.90;;;;;;5092855;28;20191;-55
2023/05/25 00:58:26;;;;;;;21.02;4.53;;;13.10;99.90;;;;;;5092482;28;20167;-55
2023/05/25 01:00:55;;;;;;;12.65;4.20;;;13.20;99.90;;;;;;5092246;28;20243;-55
2023/05/25 01:03:26;;;;;;;11.27;3.50;;;13.00;99.90;;;;;;5092176;28;20178;-55
2023/05/25 01:05:54;;;;;;;18.55;4.20;;;13.20;99.90;;;;;;5092662;28;20192;-55
2023/05/25 01:08:22;;;;;;;11.73;3.58;;;13.20;99.90;;;;;;5091866;28;20167;-56
2023/05/25 01:10:51;;;;;;;11.05;4.13;;;13.10;99.90;;;;;;5092068;28;20176;-56
2023/05/25 01:13:19;;;;;;;11.48;3.67;;;13.10;99.90;;;;;;5092396;28;20263;-56
2023/05/25 01:15:46;;;;;;;18.38;4.40;;;13.10;99.90;;;;;;5092026;28;20190;-56
2023/05/25 01:18:14;;;;;;;12.90;3.90;;;13.10;99.90;;;;;;5092316;28;20187;-56
2023/05/25 01:21:11;;;;;;;13.45;3.97;;;13.10;99.90;;;;;;5091238;28;20328;-56
2023/05/25 01:24:04;;;;;;;11.32;3.92;;;13.30;99.90;;;;;;5076134;28;20195;-55
2023/05/25 01:26:35;;;;;;;13.05;3.60;;;13.30;99.90;;;;;;5087843;28;20222;-55
2023/05/25 01:29:03;;;;;;;18.40;3.92;;;13.20;99.90;;;;;;5092156;28;20164;-56
2023/05/25 01:31:29;;;;;;;7.65;3.38;;;13.20;99.90;;;;;;5091688;28;20164;-55
2023/05/25 01:33:55;;;;;;;11.52;3.80;;;13.10;99.90;;;;;;5091620;28;20183;-55
2023/05/25 01:36:21;;;;;;;10.38;3.17;;;13.10;99.90;;;;;;5091918;28;20275;-55
2023/05/25 01:38:47;;;;;;;13.90;3.92;;;13.10;99.90;;;;;;5091763;28;20627;-55
2023/05/25 01:41:13;;;;;;;8.65;3.20;;;13.00;99.90;;;;;;5091557;28;20204;-55
2023/05/25 01:43:40;;;;;;;12.70;3.97;;;13.00;99.90;;;;;;5091692;28;20238;-56
2023/05/25 01:46:30;;;;;;;13.45;3.88;;;13.00;99.90;;;;;;5088890;28;20194;-55
2023/05/25 01:49:07;;;;;;;7.90;3.45;;;13.10;99.90;;;;;;5053469;28;20582;-56
2023/05/25 01:51:47;;;;;;;9.40;3.72;;;13.10;99.90;;;;;;5083397;28;20172;-56
2023/05/25 01:54:18;;;;;;;14.13;3.78;;;13.00;99.90;;;;;;5091583;28;20263;-56
2023/05/25 01:56:46;;;;;;;10.60;3.25;;;13.00;99.90;;;;;;5091619;28;20168;-55
2023/05/25 01:59:15;;;;;;;9.07;3.50;;;13.00;99.90;;;;;;5073178;28;20214;-56
2023/05/25 02:01:42;;;;;;;15.13;3.67;;;13.10;99.90;;;;;;5091160;28;20547;-56
2023/05/25 02:04:08;;;;;;;12.70;3.25;;;13.00;99.90;;;;;;5091429;28;20163;-56
2023/05/25 02:06:37;;;;;;;12.88;3.92;;;13.00;99.90;;;;;;5091368;28;20693;-56
2023/05/25 02:09:03;;;;;;;10.13;3.50;;;13.00;99.90;;;;;;5090781;28;20263;-55
2023/05/25 02:11:28;;;;;;;14.55;3.78;;;13.00;99.90;;;;;;5072274;28;20263;-55
2023/05/25 02:13:54;;;;;;;10.43;3.92;;;12.90;99.90;;;;;;5090997;28;20179;-56
2023/05/25 02:16:20;;;;;;;13.27;3.53;;;12.90;99.90;;;;;;5091133;28;20667;-56
2023/05/25 02:18:45;;;;;;;8.32;3.72;;;12.90;99.90;;;;;;5073081;28;20203;-56
2023/05/25 02:21:11;;;;;;;11.85;4.10;;;12.90;99.90;;;;;;5090883;28;20268;-55
2023/05/25 02:23:37;;;;;;;12.82;3.65;;;10.60;99.90;;;;;;5073170;28;20176;-55
2023/05/25 02:26:03;;;;;;;10.52;3.55;;;12.90;99.90;;;;;;5091171;28;20179;-57
2023/05/25 02:28:28;;;;;;;12.35;3.67;;;12.90;99.90;;;;;;5090904;28;20708;-56
2023/05/25 02:30:54;;;;;;;13.77;3.70;;;12.80;99.90;;;;;;5090631;28;20678;-56
2023/05/25 02:33:20;;;;;;;11.43;3.80;;;12.80;99.90;;;;;;5090937;28;20176;-56
2023/05/25 02:35:45;;;;;;;12.65;3.83;;;12.80;99.90;;;;;;5091076;28;20172;-56
2023/05/25 02:38:11;;;;;;;11.77;3.97;;;12.80;99.90;;;;;;5091056;28;20651;-56
2023/05/25 02:40:36;;;;;;;8.68;3.53;;;12.80;99.90;;;;;;5090682;28;20673;-56
2023/05/25 02:43:02;;;;;;;12.65;3.70;;;12.60;99.90;;;;;;5090801;28;20218;-56
2023/05/25 02:45:28;;;;;;;10.57;3.67;;;12.70;99.90;;;;;;5091599;28;20515;-57
2023/05/25 02:47:53;;;;;;;7.70;3.50;;;12.70;99.90;;;;;;5097809;28;20198;-56
2023/05/25 02:50:19;;;;;;;15.38;3.88;;;12.70;99.90;;;;;;5097421;28;20699;-56
2023/05/25 02:52:45;;;;;;;12.38;4.00;;;12.60;99.90;;;;;;5097756;28;20164;-56
2023/05/25 02:55:12;;;;;;;10.98;3.97;;;12.70;99.90;;;;;;5097643;28;20186;-56
2023/05/25 02:57:38;;;;;;;11.68;3.97;;;12.90;99.90;;;;;;5097614;28;20163;-56
2023/05/25 03:00:06;;;;;;;14.70;3.58;;;12.80;99.90;;;;;;5096451;28;20203;-56
2023/05/25 03:02:32;;;;;;;8.00;3.15;;;12.80;99.90;;;;;;5078725;28;20635;-56
2023/05/25 03:04:58;;;;;;;15.50;3.95;;;12.80;99.90;;;;;;5097492;28;20168;-56
2023/05/25 03:07:27;;;;;;;11.70;3.50;;;12.70;99.90;;;;;;5096716;28;20250;-56
2023/05/25 03:09:53;;;;;;;12.50;4.20;;;12.90;99.90;;;;;;5097554;28;20192;-56
2023/05/25 03:12:18;;;;;;;14.27;3.75;;;12.70;99.90;;;;;;5097237;28;20314;-56
2023/05/25 03:14:44;;;;;;;13.82;3.70;;;12.70;99.90;;;;;;5097396;28;20184;-56
2023/05/25 03:17:10;;;;;;;10.85;4.32;;;12.70;99.90;;;;;;5097210;28;20629;-56
2023/05/25 03:19:35;;;;;;;11.70;4.03;;;12.80;99.90;;;;;;5097447;28;20198;-56
2023/05/25 03:22:02;;;;;;;11.18;3.60;;;12.70;99.90;;;;;;5096531;28;20249;-56
2023/05/25 03:24:28;;;;;;;9.90;3.63;;;12.70;99.90;;;;;;5096851;28;20179;-56
2023/05/25 03:26:54;;;;;;;15.63;3.70;;;12.60;99.90;;;;;;5097284;28;20189;-56
2023/05/25 03:29:20;;;;;;;12.52;4.00;;;12.60;99.90;;;;;;5097296;28;20172;-56
2023/05/25 03:31:46;;;;;;;13.30;4.03;;;13.50;99.90;;;;;;5097267;28;20229;-56
2023/05/25 03:34:11;;;;;;;9.73;3.90;;;12.60;99.90;;;;;;5096678;28;20179;-56
2023/05/25 03:36:37;;;;;;;12.05;3.55;;;12.50;99.90;;;;;;5097285;28;20171;-56
2023/05/25 03:39:04;;;;;;;14.05;3.92;;;12.50;99.90;;;;;;5097265;28;20174;-56
2023/05/25 03:41:30;;;;;;;13.75;4.05;;;12.50;99.90;;;;;;5079016;28;20302;-56
2023/05/25 03:43:56;;;;;;;11.55;3.83;;;12.50;99.90;;;;;;5096742;28;20333;-56
2023/05/25 03:46:21;;;;;;;10.95;4.00;;;12.60;99.90;;;;;;5097255;28;20172;-56
2023/05/25 03:48:48;;;;;;;11.20;3.70;;;12.50;99.90;;;;;;5097019;28;20609;-56
2023/05/25 03:51:14;;;;;;;11.75;3.92;;;12.50;99.90;;;;;;5096812;28;20180;-59
2023/05/25 03:53:39;;;;;;;8.90;3.88;;;12.50;99.90;;;;;;5096219;28;20190;-55
2023/05/25 03:56:05;;;;;;;11.35;3.63;;;12.70;99.90;;;;;;5096780;28;20176;-56
2023/05/25 03:58:31;;;;;;;9.90;4.13;;;12.60;99.90;;;;;;5093046;28;20180;-55
2023/05/25 04:00:57;;;;;;;9.25;4.20;;;12.40;99.90;;;;;;5094005;28;20268;-55
2023/05/25 04:03:23;;;;;;;6.93;3.40;;;12.50;99.90;;;;;;5093539;28;20180;-55
2023/05/25 04:05:48;;;;;;;10.98;3.92;;;12.40;99.90;;;;;;5093518;28;20701;-56
2023/05/25 04:08:18;;;;;;;13.97;4.67;;;12.40;99.90;;;;;;5093741;28;20172;-56
2023/05/25 04:10:47;;;;;;;11.77;4.13;;;12.40;99.90;;;;;;5093164;28;20188;-56
2023/05/25 04:13:13;;;;;;;10.80;4.20;;;12.40;99.90;;;;;;5093233;28;20172;-57
2023/05/25 04:15:38;;;;;;;12.52;4.45;;;12.40;99.90;;;;;;5093506;28;20175;-56
2023/05/25 04:18:04;;;;;;;12.37;4.10;;;12.40;99.90;;;;;;5093560;28;20652;-56
2023/05/25 04:20:30;;;;;;;15.77;4.10;;;12.40;99.90;;;;;;5093394;28;20288;-55
2023/05/25 04:22:56;;;;;;;7.00;4.07;;;12.30;99.90;;;;;;5093294;28;20176;-55
2023/05/25 04:25:22;;;;;;;11.00;4.33;;;12.40;99.90;;;;;;5093388;28;20628;-55
2023/05/25 04:27:47;;;;;;;11.45;4.05;;;12.40;99.90;;;;;;5093440;28;20172;-56
2023/05/25 04:30:14;;;;;;;12.13;4.33;;;12.40;99.90;;;;;;5093307;28;20221;-56
2023/05/25 04:32:39;;;;;;;11.05;4.65;;;12.40;99.90;;;;;;5092805;28;20160;-56
2023/05/25 04:35:06;;;;;;;10.05;4.20;;;12.50;99.90;;;;;;5093274;28;20242;-56
2023/05/25 04:37:32;;;;;;;12.98;4.40;;;12.50;99.90;;;;;;5090835;28;20172;-56
2023/05/25 04:39:58;;;;;;;10.77;3.97;;;12.40;99.90;;;;;;5092678;28;20261;-56
2023/05/25 04:42:24;;;;;;;12.60;4.38;;;12.50;99.90;;;;;;5092580;28;20214;-57
2023/05/25 04:44:52;;;;;;;9.67;4.27;;;12.60;99.90;;;;;;5072821;28;20255;-56
2023/05/25 04:47:18;;;;;;;11.30;4.67;;;12.50;99.90;;;;;;5072967;28;20176;-57
2023/05/25 04:49:43;;;;;;;14.55;3.85;;;12.40;99.90;;;;;;5077568;28;20168;-56
2023/05/25 04:52:09;;;;;;;12.80;4.40;;;12.50;99.90;;;;;;5092785;28;20592;-56
2023/05/25 04:54:35;;;;;;;9.15;4.28;;;12.50;99.90;;;;;;5092051;28;20352;-56
2023/05/25 04:57:02;;;;;;;11.20;4.07;;;12.60;99.90;;;;;;5092417;28;20715;-56
2023/05/25 04:59:27;;;;;;;9.80;4.23;;;12.60;99.90;;;;;;5092729;28;20234;-56
2023/05/25 05:01:53;;;;;;;10.45;3.90;;;12.60;99.90;;;;;;5092597;28;20212;-56
2023/05/25 05:04:18;;;;;;;12.73;4.60;;;12.70;99.90;;;;;;5092298;28;20178;-56
2023/05/25 05:06:45;;;;;;;10.68;4.40;;;12.80;99.90;;;;;;5092539;28;20173;-56
2023/05/25 05:09:10;;;;;;;15.55;4.63;;;12.80;99.90;;;;;;5073916;28;20175;-57
2023/05/25 05:11:36;;;;;;;14.25;4.50;;;12.80;99.90;;;;;;5083802;28;20176;-57
2023/05/25 05:14:01;;;;;;;16.85;4.55;;;12.80;99.90;;;;;;5086568;28;20199;-57
2023/05/25 05:16:32;;;;;;;14.27;4.28;;;12.80;99.90;;;;;;5092282;28;20246;-57
2023/05/25 05:18:58;;;;;;;10.80;4.60;;;12.80;99.90;;;;;;5092388;28;20623;-57
2023/05/25 05:21:24;;;;;;;14.53;4.03;;;12.80;99.90;;;;;;5092074;28;20215;-56
2023/05/25 05:23:50;;;;;;;7.90;3.75;;;12.80;99.90;;;;;;5085230;28;20180;-57
2023/05/25 05:26:16;;;;;;;14.48;4.25;;;;;;;;;;5071942;28;20546;-57
2023/05/25 05:28:42;;;;;;;9.73;4.57;;;12.90;99.90;;;;;;5072083;28;20250;-57
2023/05/25 05:31:07;;;;;;;12.93;4.55;;;12.90;99.90;;;;;;5071886;28;20636;-56
2023/05/25 05:33:33;;;;;;;9.55;4.50;;;13.00;99.90;;;;;;5091404;28;20250;-56
2023/05/25 05:36:00;;;;;;;11.23;4.80;;;13.10;99.90;;;;;;5092089;28;20168;-56
2023/05/25 05:38:26;;;;;;;12.67;4.30;;;13.00;99.90;;;;;;5091881;28;20186;-57
2023/05/25 05:40:51;;;;;;;9.88;4.60;;;13.10;99.90;;;;;;5091775;28;20605;-56
2023/05/25 05:43:17;;;;;;;9.57;4.20;;;13.10;99.90;;;;;;5073180;28;20692;-57
2023/05/25 05:45:43;;;;;;;12.25;4.45;;;13.10;99.90;;;;;;5091817;28;20183;-56
2023/05/25 05:48:08;;;;;;;10.15;4.47;;;13.20;99.90;;;;;;5091510;28;20175;-55
2023/05/25 05:50:37;;;;;;;10.95;4.63;;;13.20;99.90;;;;;;5091552;28;20172;-55
2023/05/25 05:53:03;;;;;;;11.15;4.65;;;13.30;99.90;;;;;;5089359;28;20164;-55
2023/05/25 05:55:29;;;;;;;11.77;4.47;;;13.40;99.90;;;;;;5091628;28;20245;-55
2023/05/25 05:57:55;;;;;;;8.77;3.75;;;13.50;99.90;;;;;;5091629;28;20211;-55
2023/05/25 06:00:21;;;;;;;15.77;4.70;;;13.50;99.90;;;;;;5072887;28;20636;-55
2023/05/25 06:02:47;;;;;;;11.07;4.05;;;13.50;99.90;;;;;;5091302;28;20167;-55
2023/05/25 06:05:13;;;;;;;11.70;4.65;;;13.90;99.90;;;;;;5091296;28;20632;-55
2023/05/25 06:07:39;;;;;;;11.88;4.53;;;13.60;99.90;;;;;;5091321;28;20342;-55
2023/05/25 06:10:05;;;;;;;12.07;4.65;;;13.60;99.90;;;;;;5073191;28;20175;-55
2023/05/25 06:12:31;;;;;;;16.73;5.65;;;13.70;99.90;;;;;;5091072;28;20171;-56
2023/05/25 06:14:56;;;;;;;15.23;4.90;;;13.80;99.90;;;;;;5091292;28;20171;-57
2023/05/25 06:17:23;;;;;;;12.05;4.28;;;13.80;99.90;;;;;;5091194;28;20175;-56
2023/05/25 06:19:51;;;;;;;15.32;5.00;;;13.90;99.90;;;;;;5091105;28;20739;-55
2023/05/25 06:22:17;;;;;;;9.07;4.57;;;13.90;99.90;;;;;;5090138;28;20187;-56
2023/05/25 06:24:42;;;;;;;14.40;4.57;;;13.90;99.90;;;;;;5091102;28;20176;-55
2023/05/25 06:27:08;;;;;;;14.02;4.70;;;13.90;99.90;;;;;;5091089;28;20247;-56
2023/05/25 06:29:34;;;;;;;11.57;4.55;;;14.00;99.90;;;;;;5091063;28;20172;-56
2023/05/25 06:32:00;;;;;;;9.65;4.45;;;14.30;99.90;;;;;;5085034;28;20322;-56
2023/05/25 06:34:25;;;;;;;11.98;5.30;;;14.20;99.90;;;;;;5090900;28;20171;-55
2023/05/25 06:36:51;;;;;;;13.82;5.28;;;14.30;99.90;;;;;;5072562;28;20164;-56
2023/05/25 06:39:17;;;;;;;12.95;5.30;;;14.30;99.90;;;;;;5090849;28;20176;-56
2023/05/25 06:41:43;;;;;;;11.35;4.80;;;14.40;99.90;;;;;;5090605;28;20226;-55
2023/05/25 06:44:09;;;;;;;16.33;4.65;;;14.50;99.90;;;;;;5090642;28;20207;-63
2023/05/25 06:46:35;;;;;;;11.35;4.50;;;14.50;99.90;;;;;;5090337;28;20184;-55
2023/05/25 06:49:01;;;;;;;10.02;5.03;;;14.50;99.90;;;;;;5090664;28;20181;-56
2023/05/25 06:51:27;;;;;;;16.25;4.78;;;14.50;99.90;;;;;;5089455;28;20175;-55
2023/05/25 06:53:56;;;;;;;13.85;5.00;;;14.60;99.90;;;;;;5081523;28;20188;-55
2023/05/25 06:56:21;;;;;;;12.15;4.82;;;14.80;99.90;;;;;;5070577;28;20229;-55
2023/05/25 06:58:48;;;;;;;12.02;4.72;;;14.80;99.90;;;;;;5070410;28;20181;-56
2023/05/25 07:01:14;;;;;;;14.98;5.28;;;14.90;99.90;;;;;;5070552;28;20212;-55
2023/05/25 07:03:40;;;;;;;10.38;4.90;;;15.00;99.90;;;;;;5070402;28;20184;-55
2023/05/25 07:06:06;;;;;;;18.20;5.22;;;15.00;99.90;;;;;;5088433;28;20171;-55
2023/05/25 07:08:32;;;;;;;12.60;4.88;;;15.10;99.90;;;;;;5071296;28;20180;-55
2023/05/25 07:10:58;;;;;;;12.43;4.70;;;15.10;99.90;;;;;;5089207;28;20202;-56
2023/05/25 07:13:23;;;;;;;15.57;5.70;;;15.20;99.90;;;;;;5089511;28;20176;-56
2023/05/25 07:15:51;;;;;;;14.68;5.45;;;15.30;99.90;;;;;;5088909;28;20179;-55
2023/05/25 07:18:17;;;;;;;11.98;5.13;;;15.40;99.90;;;;;;5089495;28;20175;-56
2023/05/25 07:20:43;;;;;;;11.35;5.18;;;15.50;99.90;;;;;;5089177;28;20226;-55
2023/05/25 07:23:12;;;;;;;11.77;4.90;;;15.50;99.90;;;;;;5089621;28;20540;-55
2023/05/25 07:25:38;;;;;;;12.63;4.90;;;15.60;99.90;;;;;;5089462;28;20267;-55
2023/05/25 07:28:04;;;;;;;13.55;4.75;;;15.60;99.90;;;;;;5072237;28;20203;-56
2023/05/25 07:30:30;;;;;;;11.27;4.60;;;15.90;99.90;;;;;;5073585;28;20196;-55
2023/05/25 07:32:57;;;;;;;12.73;5.70;;;15.90;99.90;;;;;;5092509;28;20662;-55
2023/05/25 07:35:23;;;;;;;15.02;4.93;;;15.80;99.90;;;;;;5094202;28;20258;-55
2023/05/25 07:38:05;;;;;;;13.95;5.13;;;16.00;99.90;;;;;;5093455;28;20529;-55
2023/05/25 07:40:31;;;;;;;12.48;4.65;;;16.10;99.90;;;;;;5072091;28;20199;-55
2023/05/25 07:42:56;;;;;;;16.63;5.47;;;16.30;99.90;;;;;;5091144;28;20860;-54
2023/05/25 07:45:22;;;;;;;14.82;4.88;;;16.20;99.90;;;;;;5092807;28;20196;-55
2023/05/25 07:47:48;;;;;;;11.65;5.05;;;16.10;99.90;;;;;;5093894;28;20171;-55
2023/05/25 07:50:14;;;;;;;14.48;5.10;;;16.40;99.90;;;;;;5093854;28;20251;-55
2023/05/25 07:52:40;;;;;;;13.40;5.03;;;16.50;99.90;;;;;;5093753;28;20254;-55
2023/05/25 07:55:06;;;;;;;11.60;5.07;;;16.70;99.90;;;;;;5093507;28;20255;-56
2023/05/25 07:57:32;;;;;;;14.63;4.38;;;17.30;99.90;;;;;;5092288;28;20699;-55
2023/05/25 07:59:57;;;;;;;12.52;5.10;;;16.90;1.00;;;;;;5093112;28;20279;-56
2023/05/25 08:02:23;;;;;;;14.00;5.38;;;18.60;1.00;;;;;;5093402;28;20171;-56
2023/05/25 08:04:48;;;;;;;11.68;5.10;;;17.20;99.90;;;;;;5076353;28;20268;-56
2023/05/25 08:07:14;;;;;;;11.73;4.75;;;17.30;99.90;;;;;;5093364;28;20172;-56
2023/05/25 08:09:40;;;;;;;16.80;4.38;;;17.60;31.20;;;;;;5075204;28;20259;-54
2023/05/25 08:12:05;;;;;;;11.10;4.07;;;17.60;1.00;;;;;;5093408;28;20186;-55
2023/05/25 08:14:31;;;;;;;19.42;4.85;;;17.60;99.90;;;;;;5087613;28;20172;-54
2023/05/25 08:16:57;;;;;;;13.55;4.90;;;17.70;17.80;;;;;;5083946;28;20178;-53
2023/05/25 08:19:22;;;;;;;13.10;4.60;;;17.90;1.00;;;;;;5087928;28;20179;-54
2023/05/25 08:21:48;;;;;;;15.30;4.80;;;17.80;1.00;;;;;;5092707;28;20205;-53
2023/05/25 08:24:13;;;;;;;17.55;6.00;;;18.00;32.40;;;;;;5092635;28;20183;-53
2023/05/25 08:26:40;;;;;;;12.73;4.88;;;17.90;35.30;;;;;;5092534;28;20186;-54
2023/05/25 08:29:06;;;;;;;13.52;4.88;;;18.30;1.00;;;;;;5092957;28;20203;-54
2023/05/25 08:31:31;;;;;;;12.70;5.15;;;18.50;1.00;;;;;;5093019;28;20206;-55
2023/05/25 08:33:58;;;;;;;10.63;4.38;;;;;;;;;;5092891;28;20178;-56
2023/05/25 08:36:25;;;;;;;15.93;4.70;;;18.70;1.00;;;;;;5092485;28;20196;-55
2023/05/25 08:38:51;;;;;;;12.93;4.30;;;19.00;88.30;;;;;;5091556;28;20250;-55
2023/05/25 08:41:17;;;;;;;10.65;4.20;;;19.20;1.00;;;;;;5092631;28;20294;-55
2023/05/25 08:43:43;;;;;;;11.82;3.63;;;19.20;1.00;;;;;;5092363;28;20215;-55
2023/05/25 08:46:08;;;;;;;24.13;4.60;;;19.50;1.00;;;;;;5092851;28;20178;-55
2023/05/25 08:48:35;;;;;;;12.38;4.10;;;19.80;1.00;;;;;;5092726;28;20543;-55
2023/05/25 08:51:07;;;;;;;13.70;4.68;;;20.40;1.00;;;;;;5092348;28;20617;-55
2023/05/25 08:53:38;;;;;;;13.05;4.50;;;20.40;1.00;;;;;;5073808;28;20202;-55
2023/05/25 08:56:17;;;;;;;14.07;4.28;;;20.20;1.00;;;;;;5092645;28;20164;-56
2023/05/25 08:58:51;;;;;;;14.35;4.07;;;20.10;1.00;;;;;;5092604;28;20700;-57
2023/05/25 09:01:19;;;;;;;18.65;4.30;;;20.00;1.00;;;;;;5091841;28;20301;-56
2023/05/25 09:03:46;;;;;;;14.13;5.00;;;20.10;1.00;;;;;;5092511;28;20172;-56
2023/05/25 09:06:13;;;;;;;12.95;4.63;;;20.10;1.00;;;;;;5091068;28;20182;-56
2023/05/25 09:08:39;;;;;;;14.23;4.93;;;20.30;99.90;;;;;;5089805;28;20169;-56
2023/05/25 09:11:06;;;;;;;12.30;4.85;;;20.10;1.00;;;;;;5072461;28;20173;-56
2023/05/25 09:13:32;;;;;;;13.27;4.53;;;20.10;99.90;;;;;;5088569;28;20171;-56
2023/05/25 09:15:58;;;;;;;21.73;4.80;;;20.30;99.90;;;;;;5074333;28;20292;-56
2023/05/25 09:18:23;;;;;;;13.60;4.80;;;20.60;99.90;;;;;;5092299;28;20251;-56
2023/05/25 09:20:49;;;;;;;12.63;4.80;;;20.90;99.90;;;;;;5073390;28;20203;-55
2023/05/25 09:23:16;;;;;;;15.63;5.28;;;20.80;99.90;;;;;;5091835;28;20185;-56
2023/05/25 09:25:42;;;;;;;16.77;4.78;;;20.80;99.90;;;;;;5075767;28;20164;-56
2023/05/25 09:28:08;;;;;;;17.45;5.07;;;21.00;99.90;;;;;;5072015;28;20590;-55
2023/05/25 09:30:35;;;;;;;13.45;4.63;;;21.30;1.00;;;;;;5071864;28;20177;-56
2023/05/25 09:33:16;;;;;;;18.13;4.28;;;21.30;1.00;;;;;;5070361;28;20541;-56
2023/05/25 09:35:42;;;;;;;11.80;4.70;;;21.50;1.00;;;;;;5074967;28;20184;-56
2023/05/25 09:38:08;;;;;;;12.63;4.60;;;21.60;1.00;;;;;;5073782;28;20217;-56
2023/05/25 09:40:34;;;;;;;16.35;4.65;;;21.90;1.00;;;;;;5091918;28;20246;-56
2023/05/25 09:43:02;;;;;;;19.38;4.93;;;21.80;1.00;;;;;;5091737;28;20743;-55
2023/05/25 09:45:28;;;;;;;13.48;4.72;;;22.20;99.90;;;;;;5091709;28;20182;-58
2023/05/25 09:47:55;;;;;;;18.95;5.15;;;22.20;99.90;;;;;;5091631;28;20179;-56
2023/05/25 09:50:21;;;;;;;16.55;5.30;;;22.50;99.90;;;;;;5073817;28;20648;-56
2023/05/25 09:52:47;;;;;;;14.05;5.40;;;22.50;97.40;;;;;;5091470;28;20234;-55
2023/05/25 09:55:14;;;;;;;15.77;4.88;;;22.40;35.80;;;;;;5072890;28;20184;-56
2023/05/25 09:57:41;;;;;;;17.63;4.90;;;22.60;99.90;;;;;;5091292;28;20172;-55
2023/05/25 10:00:08;;;;;;;10.80;4.57;;;22.60;88.90;;;;;;5084518;28;20672;-55
2023/05/25 10:02:35;;;;;;;12.70;4.18;;;23.10;1.00;;;;;;5090356;28;20709;-55
2023/05/25 10:05:01;;;;;;;14.65;4.60;;;;;;;;;;5091367;28;20632;-55
2023/05/25 10:07:27;;;;;;;14.30;5.15;;;23.30;1.00;;;;;;5091442;28;20663;-55
2023/05/25 10:09:54;;;;;;;22.73;5.65;;;23.30;1.00;;;;;;5091459;28;20259;-55
2023/05/25 10:12:22;;;;;;;14.68;4.68;;;23.20;1.00;;;;;;5091464;28;20200;-55
2023/05/25 10:14:49;;;;;;;16.42;5.40;;;23.50;1.00;;;;;;5091248;28;20188;-56
2023/05/25 10:17:20;;;;;;;14.68;5.63;;;23.40;1.00;;;;;;5091264;28;20172;-55
2023/05/25 10:19:53;;;;;;;16.95;5.45;;;23.10;1.00;;;;;;5091023;28;20203;-55
2023/05/25 10:22:39;;;;;;;14.88;5.22;;;23.50;1.00;;;;;;5091180;28;20175;-55
2023/05/25 10:25:25;;;;;;;13.95;4.45;;;24.10;1.00;;;;;;5091130;28;20163;-55
2023/05/25 10:28:14;;;;;;;19.90;5.55;;;24.40;1.00;;;;;;5091120;28;20246;-55
2023/05/25 10:30:41;;;;;;;17.23;4.65;;;24.50;1.00;;;;;;5091107;28;20180;-56
2023/05/25 10:33:08;;;;;;;15.10;5.05;;;25.30;1.00;;;;;;5091022;28;20176;-56
2023/05/25 10:35:36;;;;;;;13.00;4.65;;;25.40;59.20;;;;;;5091072;28;20196;-56
2023/05/25 10:38:03;;;;;;;11.90;4.75;;;25.40;99.90;;;;;;5090979;28;20525;-56
2023/05/25 10:40:29;;;;;;;13.88;4.90;;;24.90;86.60;;;;;;5090615;28;20671;-56
2023/05/25 10:42:55;;;;;;;16.33;4.00;;;24.70;99.90;;;;;;5090608;28;20318;-56
2023/05/25 10:45:21;;;;;;;15.85;5.55;;;25.40;44.60;;;;;;5090450;28;20289;-57
2023/05/25 10:47:47;;;;;;;14.77;4.38;;;25.20;1.00;;;;;;5090201;28;20519;-57
2023/05/25 10:50:33;;;;;;;17.40;4.18;;;25.40;1.00;;;;;;5090645;28;20664;-56
2023/05/25 10:53:06;;;;;;;9.07;3.60;;;24.50;1.00;;;;;;5089883;28;20199;-57
2023/05/25 10:56:02;;;;;;;12.75;3.50;;;25.00;1.00;;;;;;5090677;28;20186;-55
2023/05/25 10:58:29;;;;;;;9.02;2.80;;;25.80;1.00;;;;;;5071007;28;20195;-55
2023/05/25 11:01:08;;;;;;;9.73;3.40;;;25.70;1.00;;;;;;5089939;28;20235;-55
2023/05/25 11:03:43;;;;;;;15.93;4.15;;;25.80;99.90;;;;;;5084876;28;20234;-56
2023/05/25 11:06:16;;;;;;;11.23;2.95;;;26.10;99.90;;;;;;5084771;28;20186;-56
2023/05/25 11:08:51;;;;;;;12.15;3.33;;;26.00;99.90;;;;;;5094256;28;20168;-55
2023/05/25 11:11:16;;;;;;;7.88;3.50;;;25.60;99.90;;;;;;5094810;28;20699;-55
2023/05/25 11:13:48;;;;;;;12.50;3.65;;;25.00;99.90;;;;;;5094063;28;20305;-56
2023/05/25 11:16:25;;;;;;;12.13;3.50;;;25.60;99.90;;;;;;5066800;28;20180;-56
2023/05/25 11:18:52;;;;;;;14.57;3.53;;;25.50;1.00;;;;;;5094453;28;20600;-55
2023/05/25 11:21:39;;;;;;;16.55;3.83;;;26.00;99.90;;;;;;5094360;28;20202;-55
2023/05/25 11:24:12;;;;;;;17.90;4.05;;;26.20;99.90;;;;;;5094499;28;20164;-55
2023/05/25 11:26:59;;;;;;;11.90;4.05;;;26.80;99.90;;;;;;5094710;28;20179;-55
2023/05/25 11:29:30;;;;;;;10.68;4.10;;;26.60;99.90;;;;;;5094583;28;20635;-55
2023/05/25 11:31:55;;;;;;;18.38;5.03;;;26.00;99.40;;;;;;5094365;28;20314;-57
2023/05/25 11:34:25;;;;;;;20.80;4.65;;;25.60;67.80;;;;;;5094215;28;20263;-57
2023/05/25 11:36:56;;;;;;;14.40;4.35;;;25.90;99.90;;;;;;5076637;28;20172;-57
2023/05/25 11:39:22;;;;;;;18.30;4.80;;;26.40;99.90;;;;;;5094299;28;20175;-57
2023/05/25 11:41:54;;;;;;;14.95;4.55;;;26.30;99.90;;;;;;5094218;28;20601;-56
2023/05/25 11:44:28;;;;;;;15.07;4.50;;;26.40;67.90;;;;;;5093901;28;20734;-57
2023/05/25 11:47:00;;;;;;;15.30;4.18;;;26.10;59.60;;;;;;5094227;28;20183;-57
2023/05/25 11:49:26;;;;;;;10.85;4.22;;;26.20;75.00;;;;;;5092825;28;20624;-57
2023/05/25 11:51:52;;;;;;;11.73;4.03;;;26.80;99.90;;;;;;5093962;28;20179;-57
2023/05/25 11:54:26;;;;;;;12.50;4.15;;;26.30;1.00;;;;;;5093859;28;20644;-57
2023/05/25 11:56:57;;;;;;;14.82;4.38;;;25.60;10.90;;;;;;5092996;28;20261;-57
2023/05/25 11:59:23;;;;;;;12.18;3.97;;;24.90;1.00;;;;;;5093564;28;20194;-57
2023/05/25 12:02:02;;;;;;;15.32;4.22;;;24.50;7.30;;;;;;5079947;28;20215;-57
2023/05/25 12:04:29;;;;;;;11.00;3.53;;;24.50;1.00;;;;;;5073576;28;20179;-57
2023/05/25 12:07:01;;;;;;;14.23;4.00;;;25.20;1.00;;;;;;5092683;28;20223;-57
2023/05/25 12:09:27;;;;;;;13.07;4.22;;;25.20;1.00;;;;;;5093414;28;20213;-57
2023/05/25 12:11:53;;;;;;;8.05;3.28;;;25.50;1.00;;;;;;5093494;28;20744;-57
2023/05/25 12:14:19;;;;;;;10.52;3.70;;;25.60;1.00;;;;;;5093465;28;20183;-57
2023/05/25 12:16:45;;;;;;;9.57;3.58;;;;;;;;;;5093422;28;20180;-57
2023/05/25 12:19:11;;;;;;;12.48;3.83;;;26.30;1.00;;;;;;5091772;28;20187;-57
2023/05/25 12:21:39;;;;;;;8.02;3.25;;;26.90;20.90;;;;;;5093459;28;20212;-57
2023/05/25 12:24:07;;;;;;;8.85;3.30;;;26.80;1.00;;;;;;5093008;28;20164;-58
2023/05/25 12:26:33;;;;;;;7.50;2.90;;;27.30;1.00;;;;;;5093329;28;20172;-59
2023/05/25 12:29:05;;;;;;;11.75;3.10;;;27.40;1.00;;;;;;5092095;28;20207;-59
2023/05/25 12:31:33;;;;;;;7.57;3.13;;;28.10;1.00;;;;;;5093247;28;20167;-58
2023/05/25 12:34:13;;;;;;;9.48;3.22;;;28.00;1.00;;;;;;5093221;28;20164;-58
2023/05/25 12:36:45;;;;;;;12.63;3.58;;;28.10;1.00;;;;;;5093078;28;20233;-56
2023/05/25 12:39:16;;;;;;;11.63;3.25;;;28.30;1.00;;;;;;5092125;28;20179;-57
2023/05/25 12:41:46;;;;;;;9.48;3.45;;;28.40;1.00;;;;;;5091918;28;20208;-56
2023/05/25 12:44:32;;;;;;;9.77;3.35;;;28.70;1.00;;;;;;5092628;28;20228;-57